createdAt,value
2019-04-03T00:02:22.432Z,4.40
2019-04-03T00:05:25.858Z,4.47
2019-04-03T00:08:29.321Z,4.53
2019-04-03T00:11:32.790Z,4.07
2019-04-03T00:14:36.233Z,4.70
2019-04-03T00:17:39.703Z,4.43
2019-04-03T00:20:43.124Z,4.87
2019-04-03T00:23:46.585Z,4.60
2019-04-03T00:26:51.852Z,4.73
2019-04-03T00:29:55.217Z,5.10
2019-04-03T00:32:58.711Z,4.70
2019-04-03T00:36:02.529Z,4.50
2019-04-03T00:39:07.625Z,4.87
2019-04-03T00:42:11.089Z,5.13
2019-04-03T00:45:14.806Z,4.50
2019-04-03T00:48:18.510Z,3.83
2019-04-03T00:51:22.140Z,4.07
2019-04-03T00:54:26.364Z,4.70
2019-04-03T00:57:30.314Z,4.33
2019-04-03T01:00:33.792Z,4.63
2019-04-03T01:03:37.281Z,4.53
2019-04-03T01:06:40.754Z,5.00
2019-04-03T01:09:44.177Z,4.80
2019-04-03T01:12:47.638Z,4.37
2019-04-03T01:15:51.078Z,4.87
2019-04-03T01:18:54.537Z,5.10
2019-04-03T01:21:58.009Z,4.60
2019-04-03T01:25:01.441Z,4.67
2019-04-03T01:28:04.884Z,5.03
2019-04-03T01:31:08.337Z,4.43
2019-04-03T01:34:11.792Z,4.73
2019-04-03T01:37:15.264Z,4.53
2019-04-03T01:40:20.148Z,4.50
2019-04-03T01:43:23.878Z,4.53
2019-04-03T01:46:28.066Z,5.30
2019-04-03T01:49:31.750Z,5.17
2019-04-03T01:52:35.381Z,5.03
2019-04-03T01:55:38.835Z,4.80
2019-04-03T01:58:42.296Z,4.87
2019-04-03T02:01:45.741Z,5.13
2019-04-03T02:04:49.219Z,4.60
2019-04-03T02:07:52.742Z,4.73
2019-04-03T02:10:56.343Z,5.53
2019-04-03T02:13:59.833Z,5.03
2019-04-03T02:17:03.284Z,4.63
2019-04-03T02:20:06.861Z,4.70
2019-04-03T02:23:10.816Z,4.93
2019-04-03T02:26:14.273Z,5.07
2019-04-03T02:29:17.741Z,6.33
2019-04-03T02:32:23.322Z,5.50
2019-04-03T02:35:26.382Z,4.90
2019-04-03T02:38:29.827Z,4.83
2019-04-03T02:41:35.408Z,6.83
2019-04-03T02:44:38.505Z,5.50
2019-04-03T02:47:41.960Z,4.87
2019-04-03T02:50:47.611Z,5.83
2019-04-03T02:53:50.659Z,5.27
2019-04-03T02:56:54.525Z,4.90
2019-04-03T02:59:59.800Z,5.43
2019-04-03T03:03:03.338Z,5.47
2019-04-03T03:06:06.821Z,5.27
2019-04-03T03:09:11.375Z,5.20
2019-04-03T03:12:16.033Z,5.40
2019-04-03T03:15:20.372Z,5.03
2019-04-03T03:18:26.884Z,5.07
2019-04-03T03:21:30.913Z,4.97
2019-04-03T03:24:35.247Z,5.33
2019-04-03T03:27:41.902Z,5.33
2019-04-03T03:30:54.871Z,5.33
2019-04-03T03:33:50.007Z,5.27
2019-04-03T03:36:58.675Z,5.37
2019-04-03T03:39:59.348Z,5.70
2019-04-03T03:43:05.497Z,5.93
2019-04-03T03:46:10.711Z,5.33
2019-04-03T03:49:17.458Z,5.37
2019-04-03T03:52:20.414Z,5.70
2019-04-03T03:55:25.646Z,5.60
2019-04-03T03:58:30.187Z,5.37
2019-04-03T04:01:34.314Z,5.60
2019-04-03T04:04:37.967Z,5.93
2019-04-03T04:07:41.596Z,5.70
2019-04-03T04:10:45.029Z,5.73
2019-04-03T04:13:49.675Z,5.67
2019-04-03T04:16:53.637Z,5.43
2019-04-03T04:20:02.615Z,5.37
2019-04-03T04:23:03.413Z,5.27
2019-04-03T04:26:07.180Z,5.63
2019-04-03T04:29:11.431Z,5.20
2019-04-03T04:32:15.413Z,5.50
2019-04-03T04:35:20.763Z,5.67
2019-04-03T04:38:24.802Z,5.23
2019-04-03T04:41:32.059Z,5.53
2019-04-03T04:44:34.604Z,5.30
2019-04-03T04:47:38.305Z,5.77
2019-04-03T04:50:41.801Z,5.30
2019-04-03T04:53:45.289Z,5.93
2019-04-03T04:56:48.737Z,5.73
2019-04-03T04:59:52.185Z,6.23
2019-04-03T05:02:55.642Z,5.40
2019-04-03T05:05:59.104Z,5.60
2019-04-03T05:09:04.470Z,5.57
2019-04-03T05:12:09.695Z,5.43
2019-04-03T05:15:13.237Z,5.53
2019-04-03T05:18:16.697Z,5.40
2019-04-03T05:21:21.739Z,5.40
2019-04-03T05:24:25.320Z,5.23
2019-04-03T05:27:29.040Z,5.33
2019-04-03T05:30:36.523Z,6.17
2019-04-03T05:33:41.235Z,5.33
2019-04-03T05:36:44.768Z,5.20
2019-04-03T05:39:48.217Z,5.77
2019-04-03T05:42:51.766Z,5.20
2019-04-03T05:45:55.185Z,5.90
2019-04-03T05:48:58.665Z,5.67
2019-04-03T05:52:04.080Z,5.50
2019-04-03T05:55:09.702Z,5.60
2019-04-03T05:58:15.614Z,6.00
2019-04-03T06:01:19.022Z,5.87
2019-04-03T06:04:22.490Z,6.20
2019-04-03T06:07:25.973Z,6.50
2019-04-03T06:10:31.612Z,6.30
2019-04-03T06:13:34.585Z,5.90
2019-04-03T06:16:38.045Z,6.33
2019-04-03T06:19:41.485Z,5.80
2019-04-03T06:22:44.946Z,6.20
2019-04-03T06:25:48.379Z,5.70
2019-04-03T06:28:51.829Z,6.47
2019-04-03T06:31:57.308Z,6.80
2019-04-03T06:35:00.448Z,6.80
2019-04-03T06:38:03.876Z,6.70
2019-04-03T06:41:08.768Z,6.57
2019-04-03T06:44:12.632Z,6.30
2019-04-03T06:47:16.102Z,6.43
2019-04-03T06:50:19.534Z,7.20
2019-04-03T06:53:27.404Z,6.03
2019-04-03T06:56:28.144Z,6.37
2019-04-03T06:59:31.690Z,6.27
2019-04-03T07:02:35.206Z,5.97
2019-04-03T07:05:39.304Z,6.03
2019-04-03T07:08:43.837Z,5.83
2019-04-03T07:11:47.345Z,6.37
2019-04-03T07:14:50.863Z,6.30
2019-04-03T07:17:54.563Z,5.90
2019-04-03T07:20:58.413Z,5.83
2019-04-03T07:24:02.241Z,6.30
2019-04-03T07:27:06.515Z,6.43
2019-04-03T07:30:11.465Z,6.20
2019-04-03T07:33:15.288Z,6.80
2019-04-03T07:36:19.035Z,6.50
2019-04-03T07:39:22.646Z,6.43
2019-04-03T07:42:26.163Z,6.53
2019-04-03T07:45:29.624Z,6.67
2019-04-03T07:48:33.566Z,6.77
2019-04-03T07:51:37.102Z,6.70
2019-04-03T07:54:40.553Z,6.70
2019-04-03T07:57:44.276Z,6.33
2019-04-03T08:00:48.262Z,6.63
2019-04-03T08:03:53.874Z,7.37
2019-04-03T08:06:57.361Z,6.13
2019-04-03T08:10:00.832Z,7.07
2019-04-03T08:13:04.998Z,6.67
2019-04-03T08:16:09.973Z,6.70
2019-04-03T08:19:13.436Z,6.53
2019-04-03T08:22:16.893Z,6.50
2019-04-03T08:25:20.313Z,6.73
2019-04-03T08:28:26.014Z,6.40
2019-04-03T08:31:28.924Z,6.67
2019-04-03T08:34:32.732Z,6.77
2019-04-03T08:37:36.700Z,6.97
2019-04-03T08:40:40.283Z,6.77
2019-04-03T08:43:43.865Z,6.90
2019-04-03T08:46:47.490Z,7.57
2019-04-03T08:49:51.152Z,7.03
2019-04-03T08:52:54.605Z,6.63
2019-04-03T08:55:58.103Z,7.00
2019-04-03T08:59:01.573Z,7.17
2019-04-03T09:02:05.830Z,6.63
2019-04-03T09:05:13.578Z,7.43
2019-04-03T09:08:15.931Z,6.70
2019-04-03T09:11:19.586Z,5.90
2019-04-03T09:14:23.622Z,5.97
2019-04-03T09:17:28.191Z,5.90
2019-04-03T09:20:34.481Z,5.27
2019-04-03T09:23:36.793Z,5.57
2019-04-03T09:26:40.233Z,5.40
2019-04-03T09:29:45.188Z,5.67
2019-04-03T09:32:48.841Z,5.30
2019-04-03T09:35:52.301Z,4.50
2019-04-03T09:38:55.799Z,4.53
2019-04-03T09:41:59.263Z,4.87
2019-04-03T09:45:03.009Z,4.50
2019-04-03T09:48:06.651Z,5.10
2019-04-03T09:51:10.204Z,3.90
2019-04-03T09:54:14.077Z,4.33
2019-04-03T09:57:17.773Z,3.80
2019-04-03T10:00:21.781Z,3.80
2019-04-03T10:03:25.224Z,3.90
2019-04-03T10:06:30.995Z,3.77
2019-04-03T10:09:34.202Z,3.80
2019-04-03T10:12:37.982Z,3.57
2019-04-03T10:15:41.528Z,3.63
2019-04-03T10:18:45.021Z,4.03
2019-04-03T10:21:50.057Z,3.83
2019-04-03T10:24:53.674Z,3.70
2019-04-03T10:27:57.101Z,3.33
2019-04-03T10:31:00.560Z,3.60
2019-04-03T10:34:04.686Z,3.63
2019-04-03T10:37:08.305Z,3.03
2019-04-03T10:40:13.091Z,3.57
2019-04-03T10:43:16.616Z,3.37
2019-04-03T10:46:20.120Z,3.20
2019-04-03T10:49:23.821Z,3.53
2019-04-03T10:52:27.316Z,3.47
2019-04-03T10:55:31.415Z,3.40
2019-04-03T10:58:36.676Z,3.90
2019-04-03T11:01:40.094Z,4.13
2019-04-03T11:04:43.556Z,4.10
2019-04-03T11:07:47.027Z,4.47
2019-04-03T11:10:50.718Z,4.57
2019-04-03T11:13:54.345Z,5.37
2019-04-03T11:16:58.137Z,4.70
2019-04-03T11:20:02.110Z,5.40
2019-04-03T11:23:08.178Z,5.67
2019-04-03T11:26:10.753Z,5.07
2019-04-03T11:29:14.221Z,5.43
2019-04-03T11:32:17.666Z,5.77
2019-04-03T11:35:22.284Z,5.30
2019-04-03T11:38:28.247Z,6.80
2019-04-03T11:41:31.282Z,7.30
2019-04-03T11:44:34.735Z,6.23
2019-04-03T11:47:38.318Z,5.83
2019-04-03T11:50:42.018Z,6.13
2019-04-03T11:53:46.009Z,6.23
2019-04-03T11:56:49.532Z,6.03
2019-04-03T11:59:55.420Z,5.33
2019-04-03T12:02:58.217Z,5.20
2019-04-03T12:06:01.671Z,5.80
2019-04-03T12:09:07.735Z,4.87
2019-04-03T12:12:11.364Z,5.47
2019-04-03T12:15:16.401Z,6.27
2019-04-03T12:18:19.996Z,6.37
2019-04-03T12:21:23.460Z,5.93
2019-04-03T12:24:27.204Z,6.50
2019-04-03T12:27:30.733Z,6.57
2019-04-03T12:30:34.197Z,5.37
2019-04-03T12:33:37.718Z,5.67
2019-04-03T12:36:41.497Z,5.77
2019-04-03T12:39:45.120Z,5.90
2019-04-03T12:42:48.999Z,5.83
2019-04-03T12:45:52.627Z,6.40
2019-04-03T12:48:56.507Z,5.57
2019-04-03T12:52:03.217Z,5.60
2019-04-03T12:55:08.617Z,5.47
2019-04-03T12:58:12.125Z,5.63
2019-04-03T13:01:17.722Z,6.57
2019-04-03T13:04:21.134Z,6.17
2019-04-03T13:07:25.052Z,5.37
2019-04-03T13:10:40.319Z,5.33
2019-04-03T13:13:33.769Z,5.07
2019-04-03T13:16:37.440Z,5.20
2019-04-03T13:19:41.123Z,4.77
2019-04-03T13:22:44.983Z,5.20
2019-04-03T13:25:48.935Z,4.47
2019-04-03T13:28:53.379Z,4.43
2019-04-03T13:31:57.137Z,3.83
2019-04-03T13:35:00.678Z,4.30
2019-04-03T13:38:04.172Z,4.43
2019-04-03T13:41:08.008Z,2.67
2019-04-03T13:44:12.789Z,3.07
2019-04-03T13:47:16.259Z,3.30
2019-04-03T13:50:21.773Z,3.70
2019-04-03T13:53:25.707Z,3.40
2019-04-03T13:56:29.646Z,2.83
2019-04-03T13:59:33.096Z,3.23
2019-04-03T14:02:36.621Z,3.77
2019-04-03T14:05:42.499Z,3.63
2019-04-03T14:08:46.031Z,3.53
2019-04-03T14:11:49.675Z,3.23
2019-04-03T14:14:53.492Z,3.87
2019-04-03T14:17:59.070Z,3.73
2019-04-03T14:21:02.456Z,4.03
2019-04-03T14:24:08.768Z,3.90
2019-04-03T14:27:19.367Z,4.20
2019-04-03T14:30:17.727Z,4.67
2019-04-03T14:33:21.402Z,4.03
2019-04-03T14:36:26.807Z,4.30
2019-04-03T14:39:30.044Z,4.90
2019-04-03T14:42:33.496Z,4.47
2019-04-03T14:45:38.735Z,4.20
2019-04-03T14:48:42.197Z,4.60
2019-04-03T14:51:46.052Z,4.97
2019-04-03T14:54:49.613Z,4.30
2019-04-03T14:57:55.482Z,4.63
2019-04-03T15:00:58.566Z,5.20
2019-04-03T15:04:02.293Z,4.40
2019-04-03T15:07:09.276Z,4.80
2019-04-03T15:10:11.694Z,4.70
2019-04-03T15:13:15.208Z,4.80
2019-04-03T15:16:18.956Z,4.90
2019-04-03T15:19:22.613Z,4.57
2019-04-03T15:22:26.127Z,4.73
2019-04-03T15:25:29.601Z,4.40
2019-04-03T15:28:33.042Z,4.47
2019-04-03T15:31:36.885Z,4.63
2019-04-03T15:34:40.437Z,4.80
2019-04-03T15:37:43.972Z,4.70
2019-04-03T15:40:47.903Z,4.60
2019-04-03T15:43:52.059Z,5.17
2019-04-03T15:46:55.567Z,4.93
2019-04-03T15:49:59.871Z,5.07
2019-04-03T15:53:03.844Z,5.60
2019-04-03T15:56:07.774Z,5.47
2019-04-03T15:59:11.611Z,5.20
2019-04-03T16:02:15.180Z,5.20
2019-04-03T16:05:18.844Z,4.73
2019-04-03T16:08:22.445Z,4.87
2019-04-03T16:11:27.023Z,5.00
2019-04-03T16:14:31.089Z,4.83
2019-04-03T16:17:37.534Z,6.90
2019-04-03T16:20:39.709Z,11.63
2019-04-03T16:23:43.145Z,8.63
2019-04-03T16:26:46.606Z,6.07
2019-04-03T16:29:50.725Z,6.20
2019-04-03T16:32:56.609Z,5.17
2019-04-03T16:35:59.757Z,5.20
2019-04-03T16:39:04.826Z,4.90
2019-04-03T16:42:08.534Z,5.03
2019-04-03T16:45:12.479Z,6.73
2019-04-03T16:48:16.899Z,6.87
2019-04-03T16:51:21.453Z,5.73
2019-04-03T16:54:25.024Z,5.33
2019-04-03T16:57:28.684Z,5.37
2019-04-03T17:00:32.529Z,8.37
2019-04-03T17:03:36.422Z,5.63
2019-04-03T17:06:39.944Z,6.00
2019-04-03T17:09:43.489Z,6.90
2019-04-03T17:12:49.546Z,6.13
2019-04-03T17:15:52.632Z,6.20
2019-04-03T17:18:56.149Z,6.50
2019-04-03T17:21:59.660Z,5.83
2019-04-03T17:25:03.605Z,6.20
2019-04-03T17:28:09.335Z,6.00
2019-04-03T17:31:12.784Z,5.70
2019-04-03T17:34:16.267Z,5.90
2019-04-03T17:37:20.598Z,6.53
2019-04-03T17:40:24.150Z,7.40
2019-04-03T17:43:27.657Z,7.40
2019-04-03T17:46:31.154Z,7.30
2019-04-03T17:49:34.584Z,7.37
2019-04-03T17:52:38.041Z,6.90
2019-04-03T17:55:42.383Z,6.80
2019-04-03T17:58:47.872Z,6.40
2019-04-03T18:01:52.482Z,7.77
2019-04-03T18:04:56.479Z,8.03
2019-04-03T18:07:59.921Z,7.27
2019-04-03T18:11:03.385Z,7.27
2019-04-03T18:14:06.852Z,7.77
2019-04-03T18:17:10.289Z,8.77
2019-04-03T18:20:13.990Z,8.07
2019-04-03T18:23:17.428Z,7.97
2019-04-03T18:26:20.889Z,7.73
2019-04-03T18:29:24.571Z,7.20
2019-04-03T18:32:29.866Z,7.63
2019-04-03T18:35:33.226Z,7.37
2019-04-03T18:38:38.479Z,7.97
2019-04-03T18:41:41.852Z,8.13
2019-04-03T18:44:46.214Z,8.80
2019-04-03T18:47:51.054Z,8.47
2019-04-03T18:50:54.735Z,8.90
2019-04-03T18:53:58.257Z,8.03
2019-04-03T18:57:01.698Z,9.27
2019-04-03T19:00:08.233Z,9.97
2019-04-03T19:03:11.669Z,8.73
2019-04-03T19:06:15.222Z,9.27
2019-04-03T19:09:20.931Z,9.53
2019-04-03T19:12:35.041Z,9.40
2019-04-03T19:15:29.248Z,10.50
2019-04-03T19:18:32.708Z,9.97
2019-04-03T19:21:36.168Z,9.63
2019-04-03T19:24:39.629Z,9.60
2019-04-03T19:27:43.099Z,10.13
2019-04-03T19:30:46.565Z,9.60
2019-04-03T19:33:50.017Z,10.10
2019-04-03T19:36:53.453Z,9.57
2019-04-03T19:39:56.921Z,9.87
2019-04-03T19:43:00.362Z,8.73
2019-04-03T19:46:03.814Z,9.57
2019-04-03T19:49:07.257Z,9.77
2019-04-03T19:52:10.712Z,10.27
2019-04-03T19:55:14.249Z,10.13
2019-04-03T19:58:17.754Z,11.47
2019-04-03T20:01:23.881Z,12.33
2019-04-03T20:04:26.413Z,9.80
2019-04-03T20:07:29.925Z,6.67
2019-04-03T20:10:33.783Z,6.30
2019-04-03T20:13:39.464Z,4.57
2019-04-03T20:16:42.958Z,3.40
2019-04-03T20:19:46.412Z,2.57
2019-04-03T20:22:49.867Z,1.70
2019-04-03T20:25:53.288Z,1.90
2019-04-03T20:28:57.468Z,1.40
2019-04-03T20:32:01.093Z,1.60
2019-04-03T20:35:06.656Z,1.70
2019-04-03T20:38:10.117Z,1.90
2019-04-03T20:41:13.565Z,1.80
2019-04-03T20:44:17.556Z,1.37
2019-04-03T20:47:21.022Z,1.83
2019-04-03T20:50:24.460Z,1.93
2019-04-03T20:53:27.908Z,1.97
2019-04-03T20:56:34.078Z,1.70
2019-04-03T20:59:36.543Z,1.33
2019-04-03T21:02:41.987Z,1.40
2019-04-03T21:05:45.218Z,1.40
2019-04-03T21:08:50.238Z,1.50
2019-04-03T21:11:53.673Z,1.50
2019-04-03T21:15:07.603Z,1.73
2019-04-03T21:18:02.284Z,1.27
2019-04-03T21:21:05.737Z,1.70
2019-04-03T21:24:09.182Z,1.60
2019-04-03T21:27:12.640Z,1.77
2019-04-03T21:30:16.065Z,1.60
2019-04-03T21:33:19.525Z,1.70
2019-04-03T21:36:23.024Z,1.30
2019-04-03T21:39:26.473Z,1.77
2019-04-03T21:42:29.920Z,1.80
2019-04-03T21:45:33.374Z,1.97
2019-04-03T21:48:36.808Z,2.10
2019-04-03T21:51:40.273Z,1.90
2019-04-03T21:54:43.721Z,2.00
2019-04-03T21:57:47.159Z,2.20
2019-04-03T22:00:59.756Z,2.47
2019-04-03T22:04:03.198Z,2.27
2019-04-03T22:07:06.654Z,2.30
2019-04-03T22:10:10.541Z,2.63
2019-04-03T22:13:14.000Z,2.67
2019-04-03T22:16:19.569Z,3.40
2019-04-03T22:19:22.638Z,2.70
2019-04-03T22:22:26.065Z,2.83
2019-04-03T22:25:29.508Z,2.43
2019-04-03T22:28:32.956Z,2.20
2019-04-03T22:31:36.417Z,2.50
2019-04-03T22:34:39.844Z,2.63
2019-04-03T22:37:43.296Z,2.37
2019-04-03T22:40:46.737Z,2.20
2019-04-03T22:43:50.167Z,2.20
2019-04-03T22:46:54.119Z,2.50
2019-04-03T22:49:58.174Z,2.60
2019-04-03T22:53:01.612Z,2.53
2019-04-03T22:56:05.064Z,2.50
2019-04-03T22:59:08.510Z,2.67
2019-04-03T23:02:11.960Z,2.40
2019-04-03T23:05:17.077Z,2.40
2019-04-03T23:08:20.943Z,2.60
2019-04-03T23:11:25.721Z,2.40
2019-04-03T23:14:29.177Z,2.70
2019-04-03T23:17:32.632Z,2.67
2019-04-03T23:20:36.065Z,2.53
2019-04-03T23:23:39.513Z,3.00
2019-04-03T23:26:42.947Z,2.83
2019-04-03T23:29:46.393Z,2.97
2019-04-03T23:32:49.841Z,3.50
2019-04-03T23:35:53.305Z,3.53
2019-04-03T23:38:57.116Z,3.50
2019-04-03T23:42:00.723Z,3.20
2019-04-03T23:45:05.521Z,3.57
2019-04-03T23:48:08.976Z,3.13
2019-04-03T23:51:22.599Z,2.90
2019-04-03T23:54:17.604Z,3.10
2019-04-03T23:57:21.053Z,3.20
